Scot Leipzig — 9HA4096 — position and weather

sailwx.info

Track history (hours):
 
Tides and Currents Weather Stations Pressure Air Temp Water Temp Dewpoint Dewpoint Depression Visibility Wind Speed Wind Dir Waves Ship Positions

Scot Leipzig

Last reported at 2018-Jun-18 13:30 UTC. Time now 2018-Jun-18 13:31 UTC.
Position N 55°17' E 010°48'.

Length 117 m; draft 7.1 m.

Type: Ship (hazmat cat A). MMSI: 249080000.

Date/timePositionNaut miles runAvg speedWind from/ knotsBaromVisibWave heightAir tempDewpointWater temp
2018-Jun-18 13:30N 55°17' E 010°48'11 8.1
2018-Jun-18 12:10N 55°14' E 011°06'212.9
2018-Jun-18 12:00N 55°12' E 011°06'613.1
2018-Jun-18 11:30N 55°06' E 011°03'713.6
2018-Jun-18 11:00N 54°59' E 011°01'713.6
2018-Jun-18 10:30N 54°54' E 010°54'713.8
2018-Jun-18 10:00N 54°47' E 010°51'611.1
2018-Jun-18 09:30N 54°42' E 010°48'510.4
2018-Jun-18 09:00N 54°38' E 010°42'612.6
2018-Jun-18 08:30N 54°33' E 010°34'26 7.5
2018-Jun-18 04:59N 54°21' E 009°54'4 7.8
2018-Jun-18 04:30N 54°22' E 009°47'2 4.6
2018-Jun-18 04:00N 54°20' E 009°44'3 5.1
2018-Jun-18 03:30N 54°18' E 009°42'3 6.3
2018-Jun-18 03:00N 54°16' E 009°38'3 5.7
2018-Jun-18 02:30N 54°13' E 009°36'4 8.2
2018-Jun-18 02:00N 54°11' E 009°30'4 8.5
2018-Jun-18 01:30N 54°09' E 009°23'3 5.0
2018-Jun-18 01:00N 54°08' E 009°20'4 8.6
2018-Jun-18 00:30N 54°04' E 009°19'4 8.6
2018-Jun-18 00:00N 53°59' E 009°17'4 8.6
2018-Jun-17 23:31N 53°56' E 009°13'3 6.7
2018-Jun-17 23:00N 53°54' E 009°09'0 0.0
2018-Jun-17 22:30N 53°54' E 009°09'2 3.5
2018-Jun-17 22:00N 53°53' E 009°06'0 0.5
2018-Jun-17 21:30N 53°53' E 009°06'0 0.1
2018-Jun-17 21:00N 53°53' E 009°05'0 0.1
2018-Jun-17 20:30N 53°53' E 009°05'3 5.7
2018-Jun-17 20:01N 53°51' E 009°01'5 9.7
2018-Jun-17 19:30N 53°50' E 008°53'5 9.4
2018-Jun-17 19:00N 53°51' E 008°45'5 9.3
2018-Jun-17 18:30N 53°55' E 008°41'5 9.5
2018-Jun-17 18:00N 53°58' E 008°35'510.7
2018-Jun-17 17:30N 53°59' E 008°26'510.8
2018-Jun-17 17:00N 53°60' E 008°17'610.9
2018-Jun-17 16:30N 53°60' E 008°07'510.9
2018-Jun-17 16:00N 54°02' E 007°59'611.8
2018-Jun-17 15:29N 54°04' E 007°50'611.9
2018-Jun-17 14:59N 54°07' E 007°41'812.0
2018-Jun-17 14:18N 54°10' E 007°27'17711.6
2018-Jun-16 23:05N 52°34' E 003°18'311.7
2018-Jun-16 22:50N 52°31' E 003°20'513.0
2018-Jun-16 22:28N 52°31' E 003°28'612.9
2018-Jun-16 22:00N 52°31' E 003°38'712.7
2018-Jun-16 21:29N 52°31' E 003°49'612.6
2018-Jun-16 21:00N 52°31' E 003°59'612.4
2018-Jun-16 20:31N 52°31' E 004°09'612.5
2018-Jun-16 20:01N 52°30' E 004°19'612.1
2018-Jun-16 19:31N 52°29' E 004°29'4 8.6
2018-Jun-16 19:00N 52°28' E 004°36'1 1.3
2018-Jun-16 18:31N 52°28' E 004°37'4 7.7
2018-Jun-16 18:00N 52°26' E 004°43'4 8.2
2018-Jun-16 17:31N 52°25' E 004°49'1 2.9
2018-Jun-16 17:00N 52°25' E 004°51'0 0.0
2018-Jun-16 16:30N 52°25' E 004°51'0 0.0
2018-Jun-16 16:00N 52°25' E 004°51'0 0.0
2018-Jun-16 15:30N 52°25' E 004°51'0 0.0
2018-Jun-16 15:00N 52°25' E 004°51'0 0.0
2018-Jun-16 14:30N 52°25' E 004°51'0 0.0
2018-Jun-16 14:00N 52°25' E 004°51'0 0.0
2018-Jun-16 13:27N 52°25' E 004°51'0 0.0
2018-Jun-16 13:00N 52°25' E 004°51'0 0.0
2018-Jun-16 12:30N 52°25' E 004°51'0 0.0
2018-Jun-16 12:00N 52°25' E 004°51'0 0.0
2018-Jun-16 11:30N 52°25' E 004°51'0 0.0
2018-Jun-16 11:00N 52°25' E 004°51'0 0.0
2018-Jun-16 10:30N 52°25' E 004°51'0 0.0
2018-Jun-16 10:00N 52°25' E 004°51'0 0.0
2018-Jun-16 09:30N 52°25' E 004°51'0 0.0
2018-Jun-16 09:00N 52°25' E 004°51'0 0.0
2018-Jun-16 08:30N 52°25' E 004°51'0 0.0
2018-Jun-16 08:00N 52°25' E 004°51'0 0.0
2018-Jun-16 07:30N 52°25' E 004°51'0 0.0
2018-Jun-16 07:00N 52°25' E 004°51'0 0.0
2018-Jun-16 06:30N 52°25' E 004°51'0 0.0
2018-Jun-16 06:00N 52°25' E 004°51'0 0.0
2018-Jun-16 05:30N 52°25' E 004°51'0 0.0
2018-Jun-16 05:00N 52°25' E 004°51'0 0.0
2018-Jun-16 04:30N 52°25' E 004°51'0 0.0
2018-Jun-16 04:00N 52°25' E 004°51'0 0.0
2018-Jun-16 03:30N 52°25' E 004°51'0 0.0
2018-Jun-16 03:00N 52°25' E 004°51'0 0.0
2018-Jun-16 02:30N 52°25' E 004°51'0 0.0
2018-Jun-16 02:00N 52°25' E 004°51'0 0.0
2018-Jun-16 01:30N 52°25' E 004°51'0 0.0
2018-Jun-16 01:00N 52°25' E 004°51'0 0.0
2018-Jun-16 00:30N 52°25' E 004°51'0 0.0
2018-Jun-16 00:00N 52°25' E 004°51'0 0.0
2018-Jun-15 23:30N 52°25' E 004°51'0 0.0
2018-Jun-15 23:00N 52°25' E 004°51'0 0.0
2018-Jun-15 22:30N 52°25' E 004°51'0 0.0
2018-Jun-15 22:00N 52°25' E 004°51'0 0.0
2018-Jun-15 21:30N 52°25' E 004°51'0 0.0
2018-Jun-15 21:00N 52°25' E 004°51'0 0.0
2018-Jun-15 20:30N 52°25' E 004°51'0 0.0
2018-Jun-15 20:00N 52°25' E 004°51'0 0.0
2018-Jun-15 19:30N 52°25' E 004°51'0 0.0
2018-Jun-15 19:00N 52°25' E 004°51'0 0.0
2018-Jun-15 18:30N 52°25' E 004°51'0 0.0
2018-Jun-15 18:00N 52°25' E 004°51'0 0.0
2018-Jun-15 17:30N 52°25' E 004°51'0 0.0
2018-Jun-15 17:00N 52°25' E 004°51'0 0.0
2018-Jun-15 16:27N 52°25' E 004°51'0 0.0
2018-Jun-15 16:00N 52°25' E 004°51'0 0.0
2018-Jun-15 15:30N 52°25' E 004°51'2 3.4
2018-Jun-15 15:01N 52°25' E 004°49'4 8.8
2018-Jun-15 14:30N 52°27' E 004°42'4 7.6
2018-Jun-15 14:00N 52°28' E 004°36'1 2.6
2018-Jun-15 13:30N 52°28' E 004°34'612.0
2018-Jun-15 13:00N 52°28' E 004°24'5 9.7
2018-Jun-15 12:30N 52°29' E 004°16'611.8
2018-Jun-15 12:00N 52°29' E 004°07'611.7
2018-Jun-15 11:30N 52°27' E 003°57'611.6
2018-Jun-15 11:00N 52°26' E 003°48'611.5
2018-Jun-15 10:30N 52°26' E 003°38'611.4
2018-Jun-15 10:00N 52°29' E 003°30'713.2
2018-Jun-15 09:30N 52°31' E 003°20'1712.4
2018-Jun-15 08:07N 52°48' E 003°13'215.0
2018-Jun-15 08:00N 52°49' E 003°14'187 9.5
2018-Jun-14 12:16N 54°02' E 008°04'1612.8
2018-Jun-14 11:01N 53°58' E 008°31'112.9
2018-Jun-14 10:57N 53°58' E 008°32'512.1
2018-Jun-14 10:31N 53°56' E 008°40'611.8
2018-Jun-14 09:59N 53°51' E 008°46'611.5
2018-Jun-14 09:30N 53°51' E 008°56'713.2
2018-Jun-14 09:00N 53°53' E 009°06'2 3.0
2018-Jun-14 08:29N 53°54' E 009°09'0 0.6
2018-Jun-14 08:00N 53°54' E 009°09'0 1.0
2018-Jun-14 07:30N 53°54' E 009°10'3 6.5
2018-Jun-14 07:00N 53°57' E 009°13'4 8.3
2018-Jun-14 06:30N 53°60' E 009°17'4 8.5
2018-Jun-14 06:00N 54°04' E 009°19'4 8.4
2018-Jun-14 05:30N 54°08' E 009°20'4 8.3
2018-Jun-14 05:00N 54°10' E 009°26'4 8.4
2018-Jun-14 04:30N 54°12' E 009°33'4 7.8
2018-Jun-14 04:00N 54°15' E 009°37'2 4.7
2018-Jun-14 03:30N 54°17' E 009°39'3 6.0
2018-Jun-14 03:00N 54°19' E 009°43'3 5.1
2018-Jun-14 02:31N 54°21' E 009°46'25 6.3
2018-Jun-13 22:30N 54°32' E 010°25'613.0
2018-Jun-13 22:00N 54°35' E 010°35'713.0
2018-Jun-13 21:30N 54°35' E 010°46'612.4
2018-Jun-13 21:00N 54°36' E 010°57'611.3
2018-Jun-13 20:30N 54°36' E 011°06'510.7
2018-Jun-13 20:00N 54°35' E 011°15'510.8
2018-Jun-13 19:30N 54°33' E 011°24'611.3
2018-Jun-13 19:00N 54°30' E 011°33'611.4
2018-Jun-13 18:30N 54°28' E 011°42'510.8
2018-Jun-13 18:00N 54°26' E 011°50'712.2
2018-Jun-13 17:27N 54°26' E 012°02'1411.5
2018-Jun-13 16:13N 54°38' E 012°17'911.3
2018-Jun-13 15:24N 54°43' E 012°30'76 8.9
2018-Jun-13 06:50N 54°39' E 014°42'1010.6
2018-Jun-13 05:51N 54°41' E 014°60'373 9.7
2018-Jun-11 15:16N 59°26' E 022°22'410.1
2018-Jun-11 14:54N 59°28' E 022°28'410.0
2018-Jun-11 14:30N 59°31' E 022°35'510.2
2018-Jun-11 14:00N 59°32' E 022°44'510.2
2018-Jun-11 13:30N 59°33' E 022°54'510.3
2018-Jun-11 13:00N 59°35' E 023°04'610.4
2018-Jun-11 12:26N 59°36' E 023°15'410.5
2018-Jun-11 12:00N 59°37' E 023°24'510.5
2018-Jun-11 11:30N 59°39' E 023°34'510.8
2018-Jun-11 11:00N 59°40' E 023°44'510.9
2018-Jun-11 10:30N 59°41' E 023°54'710.8
2018-Jun-11 09:52N 59°43' E 024°08'510.8
2018-Jun-11 09:24N 59°45' E 024°17'612.6
2018-Jun-11 08:56N 59°46' E 024°29'4 8.7
2018-Jun-11 08:30N 59°44' E 024°35'510.6
2018-Jun-11 08:00N 59°40' E 024°43'510.8
2018-Jun-11 07:30N 59°37' E 024°51'510.5
2018-Jun-11 07:00N 59°32' E 024°56'2 4.4
2018-Jun-11 06:28N 59°30' E 024°57'0 0.0
2018-Jun-11 05:58N 59°30' E 024°57'0 0.0
2018-Jun-11 05:30N 59°30' E 024°57'0 0.0
2018-Jun-11 04:59N 59°30' E 024°57'0 0.0
2018-Jun-11 04:30N 59°30' E 024°57'0 0.0
2018-Jun-11 03:58N 59°30' E 024°57'0 0.0
2018-Jun-11 03:28N 59°30' E 024°57'0 0.0
2018-Jun-11 02:58N 59°30' E 024°57'0 0.0
2018-Jun-11 02:28N 59°30' E 024°57'0 0.0
2018-Jun-11 01:58N 59°30' E 024°57'0 0.0
2018-Jun-11 01:28N 59°30' E 024°57'0 0.0
2018-Jun-11 00:58N 59°30' E 024°57'0 0.0
2018-Jun-11 00:28N 59°30' E 024°57'0 0.0
2018-Jun-10 23:58N 59°30' E 024°57'0 0.0
2018-Jun-10 23:28N 59°30' E 024°57'0 0.0
2018-Jun-10 22:59N 59°30' E 024°57'0 0.0
2018-Jun-10 22:28N 59°30' E 024°57'0 0.0
2018-Jun-10 21:58N 59°30' E 024°57'0 0.0
2018-Jun-10 21:28N 59°30' E 024°57'0 0.0
2018-Jun-10 20:58N 59°30' E 024°57'0 0.0
2018-Jun-10 20:28N 59°30' E 024°57'0 0.0
2018-Jun-10 19:58N 59°30' E 024°57'0 0.0
2018-Jun-10 19:28N 59°30' E 024°57'0 0.0
2018-Jun-10 18:58N 59°30' E 024°57'0 0.0
2018-Jun-10 18:30N 59°30' E 024°57'0 0.0
2018-Jun-10 17:58N 59°30' E 024°57'0 0.0
2018-Jun-10 17:28N 59°30' E 024°57'0 0.0
2018-Jun-10 17:00N 59°30' E 024°57'0 0.0
2018-Jun-10 16:28N 59°30' E 024°57'0 0.0
2018-Jun-10 15:58N 59°30' E 024°57'0 0.0
2018-Jun-10 15:25N 59°30' E 024°57'0 0.0
2018-Jun-10 14:58N 59°30' E 024°57'0 0.0
2018-Jun-10 14:25N 59°30' E 024°57'0 0.0
2018-Jun-10 13:28N 59°30' E 024°57'0 0.0
2018-Jun-10 12:58N 59°30' E 024°57'0 0.0
2018-Jun-10 12:28N 59°30' E 024°57'0 0.0
2018-Jun-10 11:58N 59°30' E 024°57'0 0.0
2018-Jun-10 11:28N 59°30' E 024°57'0 0.0
2018-Jun-10 10:58N 59°30' E 024°57'0 0.0
2018-Jun-10 10:29N 59°30' E 024°57'0 0.0
2018-Jun-10 09:58N 59°30' E 024°57'0 0.0
2018-Jun-10 09:29N 59°30' E 024°57'0 0.0
2018-Jun-10 08:59N 59°30' E 024°57'0 0.0
2018-Jun-10 08:25N 59°30' E 024°57'0 0.0
2018-Jun-10 08:00N 59°30' E 024°57'0 0.0
2018-Jun-10 07:29N 59°30' E 024°57'0 0.0
2018-Jun-10 06:59N 59°30' E 024°57'0 0.0
2018-Jun-10 06:30N 59°30' E 024°57'0 0.0
2018-Jun-10 05:58N 59°30' E 024°57'0 0.0
2018-Jun-10 05:30N 59°30' E 024°57'0 0.9
2018-Jun-10 05:00N 59°30' E 024°57'5 9.1
2018-Jun-10 04:31N 59°34' E 024°53'3 4.9
2018-Jun-10 03:58N 59°35' E 024°49'0 0.0
2018-Jun-10 03:29N 59°35' E 024°49'0 0.1
2018-Jun-10 02:58N 59°36' E 024°49'0 0.0
2018-Jun-10 02:28N 59°36' E 024°49'0 0.0
2018-Jun-10 01:58N 59°36' E 024°49'0 0.0
2018-Jun-10 01:28N 59°36' E 024°49'0 0.1
2018-Jun-10 01:00N 59°35' E 024°49'2 3.9
2018-Jun-10 00:30N 59°37' E 024°47'510.4
2018-Jun-10 00:00N 59°41' E 024°41'5 9.3
2018-Jun-09 23:30N 59°46' E 024°41'510.2
2018-Jun-09 23:00N 59°49' E 024°49'811.9
2018-Jun-09 22:22N 59°51' E 025°04'512.3
2018-Jun-09 21:59N 59°52' E 025°13'612.2
2018-Jun-09 21:30N 59°53' E 025°25'612.2
2018-Jun-09 20:59N 59°53' E 025°37'612.3
2018-Jun-09 20:30N 59°55' E 025°49'612.2
2018-Jun-09 20:00N 59°56' E 026°01'612.2
2018-Jun-09 19:29N 59°58' E 026°13'612.0
2018-Jun-09 19:00N 59°60' E 026°24'611.9
2018-Jun-09 18:30N 60°01' E 026°35'612.0
2018-Jun-09 18:00N 60°01' E 026°47'711.9
2018-Jun-09 17:27N 59°60' E 026°60'511.3
2018-Jun-09 17:00N 60°01' E 027°09'611.8
2018-Jun-09 16:30N 60°04' E 027°19'713.0
2018-Jun-09 16:00N 60°08' E 027°31'1111.2
2018-Jun-09 15:00N 60°11' E 027°52'612.2
2018-Jun-09 14:30N 60°10' E 028°03'612.2
2018-Jun-09 14:00N 60°08' E 028°15'611.8
2018-Jun-09 13:30N 60°05' E 028°25'712.2
2018-Jun-09 12:58N 60°03' E 028°38'612.6
2018-Jun-09 12:30N 60°03' E 028°49'611.9
2018-Jun-09 12:00N 60°02' E 029°01'612.5
2018-Jun-09 11:30N 60°02' E 029°14'1510.4
2018-Jun-09 10:02N 59°59' E 029°44'010.6
2018-Jun-09 10:00N 59°59' E 029°44'4 8.8
2018-Jun-09 09:30N 59°57' E 029°52'5 8.9
2018-Jun-09 08:59N 59°55' E 030°01'4 8.5
2018-Jun-09 08:31N 59°54' E 030°08'2 2.6
2018-Jun-09 07:56N 59°53' E 030°11'0 0.0
2018-Jun-09 07:26N 59°53' E 030°11'0 0.0
2018-Jun-09 04:26N 59°53' E 030°11'0 0.0
2018-Jun-09 03:56N 59°53' E 030°11'0 0.0
2018-Jun-09 03:26N 59°53' E 030°11'0 0.0
2018-Jun-09 02:44N 59°53' E 030°11'0 0.0
2018-Jun-09 02:26N 59°53' E 030°11'0 0.0
2018-Jun-09 01:59N 59°53' E 030°11'0 0.0
2018-Jun-09 00:56N 59°53' E 030°11'0 0.0
2018-Jun-09 00:14N 59°53' E 030°11'0 0.0
2018-Jun-08 22:28N 59°53' E 030°11'0 0.0
2018-Jun-08 21:59N 59°53' E 030°11'0 0.0
2018-Jun-08 21:28N 59°53' E 030°11'0 0.0
2018-Jun-08 20:42N 59°53' E 030°11'0 0.0
2018-Jun-08 20:20N 59°53' E 030°11'0 0.0
2018-Jun-08 18:38N 59°53' E 030°11'0 0.0
2018-Jun-08 18:09N 59°53' E 030°11'0 0.0
2018-Jun-08 17:56N 59°53' E 030°11'0 0.0
2018-Jun-08 17:30N 59°53' E 030°11'0 0.0
2018-Jun-08 16:56N 59°53' E 030°11'0 0.0
2018-Jun-08 16:26N 59°53' E 030°11'0 0.0
2018-Jun-08 15:56N 59°53' E 030°11'0 0.0
2018-Jun-08 15:23N 59°53' E 030°11'0 0.0
2018-Jun-08 14:53N 59°53' E 030°11'0 0.0
2018-Jun-08 14:26N 59°53' E 030°11'0 0.0
2018-Jun-08 13:50N 59°53' E 030°11'  
Track history (hours):
 
Tides and Currents Weather Stations Pressure Air Temp Water Temp Dewpoint Dewpoint Depression Visibility Wind Speed Wind Dir Waves Ship Positions

Scot Leipzig

Last reported at 2018-Jun-18 13:30 UTC. Time now 2018-Jun-18 13:31 UTC.
Position N 55°17' E 010°48'.

Length 117 m; draft 7.1 m.

Type: Ship (hazmat cat A). MMSI: 249080000.

Date/timePositionNaut miles runAvg speedWind from/ knotsBaromVisibWave heightAir tempDewpointWater temp
2018-Jun-18 13:30N 55°17' E 010°48'11 8.1
2018-Jun-18 12:10N 55°14' E 011°06'212.9
2018-Jun-18 12:00N 55°12' E 011°06'613.1
2018-Jun-18 11:30N 55°06' E 011°03'713.6
2018-Jun-18 11:00N 54°59' E 011°01'713.6
2018-Jun-18 10:30N 54°54' E 010°54'713.8
2018-Jun-18 10:00N 54°47' E 010°51'611.1
2018-Jun-18 09:30N 54°42' E 010°48'510.4
2018-Jun-18 09:00N 54°38' E 010°42'612.6
2018-Jun-18 08:30N 54°33' E 010°34'26 7.5
2018-Jun-18 04:59N 54°21' E 009°54'4 7.8
2018-Jun-18 04:30N 54°22' E 009°47'2 4.6
2018-Jun-18 04:00N 54°20' E 009°44'3 5.1
2018-Jun-18 03:30N 54°18' E 009°42'3 6.3
2018-Jun-18 03:00N 54°16' E 009°38'3 5.7
2018-Jun-18 02:30N 54°13' E 009°36'4 8.2
2018-Jun-18 02:00N 54°11' E 009°30'4 8.5
2018-Jun-18 01:30N 54°09' E 009°23'3 5.0
2018-Jun-18 01:00N 54°08' E 009°20'4 8.6
2018-Jun-18 00:30N 54°04' E 009°19'4 8.6
2018-Jun-18 00:00N 53°59' E 009°17'4 8.6
2018-Jun-17 23:31N 53°56' E 009°13'3 6.7
2018-Jun-17 23:00N 53°54' E 009°09'0 0.0
2018-Jun-17 22:30N 53°54' E 009°09'2 3.5
2018-Jun-17 22:00N 53°53' E 009°06'0 0.5
2018-Jun-17 21:30N 53°53' E 009°06'0 0.1
2018-Jun-17 21:00N 53°53' E 009°05'0 0.1
2018-Jun-17 20:30N 53°53' E 009°05'3 5.7
2018-Jun-17 20:01N 53°51' E 009°01'5 9.7
2018-Jun-17 19:30N 53°50' E 008°53'5 9.4
2018-Jun-17 19:00N 53°51' E 008°45'5 9.3
2018-Jun-17 18:30N 53°55' E 008°41'5 9.5
2018-Jun-17 18:00N 53°58' E 008°35'510.7
2018-Jun-17 17:30N 53°59' E 008°26'510.8
2018-Jun-17 17:00N 53°60' E 008°17'610.9
2018-Jun-17 16:30N 53°60' E 008°07'510.9
2018-Jun-17 16:00N 54°02' E 007°59'611.8
2018-Jun-17 15:29N 54°04' E 007°50'611.9
2018-Jun-17 14:59N 54°07' E 007°41'812.0
2018-Jun-17 14:18N 54°10' E 007°27'17711.6
2018-Jun-16 23:05N 52°34' E 003°18'311.7
2018-Jun-16 22:50N 52°31' E 003°20'513.0
2018-Jun-16 22:28N 52°31' E 003°28'612.9
2018-Jun-16 22:00N 52°31' E 003°38'712.7
2018-Jun-16 21:29N 52°31' E 003°49'612.6
2018-Jun-16 21:00N 52°31' E 003°59'612.4
2018-Jun-16 20:31N 52°31' E 004°09'612.5
2018-Jun-16 20:01N 52°30' E 004°19'612.1
2018-Jun-16 19:31N 52°29' E 004°29'4 8.6
2018-Jun-16 19:00N 52°28' E 004°36'1 1.3
2018-Jun-16 18:31N 52°28' E 004°37'4 7.7
2018-Jun-16 18:00N 52°26' E 004°43'4 8.2
2018-Jun-16 17:31N 52°25' E 004°49'1 2.9
2018-Jun-16 17:00N 52°25' E 004°51'0 0.0
2018-Jun-16 16:30N 52°25' E 004°51'0 0.0
2018-Jun-16 16:00N 52°25' E 004°51'0 0.0
2018-Jun-16 15:30N 52°25' E 004°51'0 0.0
2018-Jun-16 15:00N 52°25' E 004°51'0 0.0
2018-Jun-16 14:30N 52°25' E 004°51'0 0.0
2018-Jun-16 14:00N 52°25' E 004°51'0 0.0
2018-Jun-16 13:27N 52°25' E 004°51'0 0.0
2018-Jun-16 13:00N 52°25' E 004°51'0 0.0
2018-Jun-16 12:30N 52°25' E 004°51'0 0.0
2018-Jun-16 12:00N 52°25' E 004°51'0 0.0
2018-Jun-16 11:30N 52°25' E 004°51'0 0.0
2018-Jun-16 11:00N 52°25' E 004°51'0 0.0
2018-Jun-16 10:30N 52°25' E 004°51'0 0.0
2018-Jun-16 10:00N 52°25' E 004°51'0 0.0
2018-Jun-16 09:30N 52°25' E 004°51'0 0.0
2018-Jun-16 09:00N 52°25' E 004°51'0 0.0
2018-Jun-16 08:30N 52°25' E 004°51'0 0.0
2018-Jun-16 08:00N 52°25' E 004°51'0 0.0
2018-Jun-16 07:30N 52°25' E 004°51'0 0.0
2018-Jun-16 07:00N 52°25' E 004°51'0 0.0
2018-Jun-16 06:30N 52°25' E 004°51'0 0.0
2018-Jun-16 06:00N 52°25' E 004°51'0 0.0
2018-Jun-16 05:30N 52°25' E 004°51'0 0.0
2018-Jun-16 05:00N 52°25' E 004°51'0 0.0
2018-Jun-16 04:30N 52°25' E 004°51'0 0.0
2018-Jun-16 04:00N 52°25' E 004°51'0 0.0
2018-Jun-16 03:30N 52°25' E 004°51'0 0.0
2018-Jun-16 03:00N 52°25' E 004°51'0 0.0
2018-Jun-16 02:30N 52°25' E 004°51'0 0.0
2018-Jun-16 02:00N 52°25' E 004°51'0 0.0
2018-Jun-16 01:30N 52°25' E 004°51'0 0.0
2018-Jun-16 01:00N 52°25' E 004°51'0 0.0
2018-Jun-16 00:30N 52°25' E 004°51'0 0.0
2018-Jun-16 00:00N 52°25' E 004°51'0 0.0
2018-Jun-15 23:30N 52°25' E 004°51'0 0.0
2018-Jun-15 23:00N 52°25' E 004°51'0 0.0
2018-Jun-15 22:30N 52°25' E 004°51'0 0.0
2018-Jun-15 22:00N 52°25' E 004°51'0 0.0
2018-Jun-15 21:30N 52°25' E 004°51'0 0.0
2018-Jun-15 21:00N 52°25' E 004°51'0 0.0
2018-Jun-15 20:30N 52°25' E 004°51'0 0.0
2018-Jun-15 20:00N 52°25' E 004°51'0 0.0
2018-Jun-15 19:30N 52°25' E 004°51'0 0.0
2018-Jun-15 19:00N 52°25' E 004°51'0 0.0
2018-Jun-15 18:30N 52°25' E 004°51'0 0.0
2018-Jun-15 18:00N 52°25' E 004°51'0 0.0
2018-Jun-15 17:30N 52°25' E 004°51'0 0.0
2018-Jun-15 17:00N 52°25' E 004°51'0 0.0
2018-Jun-15 16:27N 52°25' E 004°51'0 0.0
2018-Jun-15 16:00N 52°25' E 004°51'0 0.0
2018-Jun-15 15:30N 52°25' E 004°51'2 3.4
2018-Jun-15 15:01N 52°25' E 004°49'4 8.8
2018-Jun-15 14:30N 52°27' E 004°42'4 7.6
2018-Jun-15 14:00N 52°28' E 004°36'1 2.6
2018-Jun-15 13:30N 52°28' E 004°34'612.0
2018-Jun-15 13:00N 52°28' E 004°24'5 9.7
2018-Jun-15 12:30N 52°29' E 004°16'611.8
2018-Jun-15 12:00N 52°29' E 004°07'611.7
2018-Jun-15 11:30N 52°27' E 003°57'611.6
2018-Jun-15 11:00N 52°26' E 003°48'611.5
2018-Jun-15 10:30N 52°26' E 003°38'611.4
2018-Jun-15 10:00N 52°29' E 003°30'713.2
2018-Jun-15 09:30N 52°31' E 003°20'1712.4
2018-Jun-15 08:07N 52°48' E 003°13'215.0
2018-Jun-15 08:00N 52°49' E 003°14'187 9.5
2018-Jun-14 12:16N 54°02' E 008°04'1612.8
2018-Jun-14 11:01N 53°58' E 008°31'112.9
2018-Jun-14 10:57N 53°58' E 008°32'512.1
2018-Jun-14 10:31N 53°56' E 008°40'611.8
2018-Jun-14 09:59N 53°51' E 008°46'611.5
2018-Jun-14 09:30N 53°51' E 008°56'713.2
2018-Jun-14 09:00N 53°53' E 009°06'2 3.0
2018-Jun-14 08:29N 53°54' E 009°09'0 0.6
2018-Jun-14 08:00N 53°54' E 009°09'0 1.0
2018-Jun-14 07:30N 53°54' E 009°10'3 6.5
2018-Jun-14 07:00N 53°57' E 009°13'4 8.3
2018-Jun-14 06:30N 53°60' E 009°17'4 8.5
2018-Jun-14 06:00N 54°04' E 009°19'4 8.4
2018-Jun-14 05:30N 54°08' E 009°20'4 8.3
2018-Jun-14 05:00N 54°10' E 009°26'4 8.4
2018-Jun-14 04:30N 54°12' E 009°33'4 7.8
2018-Jun-14 04:00N 54°15' E 009°37'2 4.7
2018-Jun-14 03:30N 54°17' E 009°39'3 6.0
2018-Jun-14 03:00N 54°19' E 009°43'3 5.1
2018-Jun-14 02:31N 54°21' E 009°46'25 6.3
2018-Jun-13 22:30N 54°32' E 010°25'613.0
2018-Jun-13 22:00N 54°35' E 010°35'713.0
2018-Jun-13 21:30N 54°35' E 010°46'612.4
2018-Jun-13 21:00N 54°36' E 010°57'611.3
2018-Jun-13 20:30N 54°36' E 011°06'510.7
2018-Jun-13 20:00N 54°35' E 011°15'510.8
2018-Jun-13 19:30N 54°33' E 011°24'611.3
2018-Jun-13 19:00N 54°30' E 011°33'611.4
2018-Jun-13 18:30N 54°28' E 011°42'510.8
2018-Jun-13 18:00N 54°26' E 011°50'712.2
2018-Jun-13 17:27N 54°26' E 012°02'1411.5
2018-Jun-13 16:13N 54°38' E 012°17'911.3
2018-Jun-13 15:24N 54°43' E 012°30'76 8.9
2018-Jun-13 06:50N 54°39' E 014°42'1010.6
2018-Jun-13 05:51N 54°41' E 014°60'373 9.7
2018-Jun-11 15:16N 59°26' E 022°22'410.1
2018-Jun-11 14:54N 59°28' E 022°28'410.0
2018-Jun-11 14:30N 59°31' E 022°35'510.2
2018-Jun-11 14:00N 59°32' E 022°44'510.2
2018-Jun-11 13:30N 59°33' E 022°54'510.3
2018-Jun-11 13:00N 59°35' E 023°04'610.4
2018-Jun-11 12:26N 59°36' E 023°15'410.5
2018-Jun-11 12:00N 59°37' E 023°24'510.5
2018-Jun-11 11:30N 59°39' E 023°34'510.8
2018-Jun-11 11:00N 59°40' E 023°44'510.9
2018-Jun-11 10:30N 59°41' E 023°54'710.8
2018-Jun-11 09:52N 59°43' E 024°08'510.8
2018-Jun-11 09:24N 59°45' E 024°17'612.6
2018-Jun-11 08:56N 59°46' E 024°29'4 8.7
2018-Jun-11 08:30N 59°44' E 024°35'510.6
2018-Jun-11 08:00N 59°40' E 024°43'510.8
2018-Jun-11 07:30N 59°37' E 024°51'510.5
2018-Jun-11 07:00N 59°32' E 024°56'2 4.4
2018-Jun-11 06:28N 59°30' E 024°57'0 0.0
2018-Jun-11 05:58N 59°30' E 024°57'0 0.0
2018-Jun-11 05:30N 59°30' E 024°57'0 0.0
2018-Jun-11 04:59N 59°30' E 024°57'0 0.0
2018-Jun-11 04:30N 59°30' E 024°57'0 0.0
2018-Jun-11 03:58N 59°30' E 024°57'0 0.0
2018-Jun-11 03:28N 59°30' E 024°57'0 0.0
2018-Jun-11 02:58N 59°30' E 024°57'0 0.0
2018-Jun-11 02:28N 59°30' E 024°57'0 0.0
2018-Jun-11 01:58N 59°30' E 024°57'0 0.0
2018-Jun-11 01:28N 59°30' E 024°57'0 0.0
2018-Jun-11 00:58N 59°30' E 024°57'0 0.0
2018-Jun-11 00:28N 59°30' E 024°57'0 0.0
2018-Jun-10 23:58N 59°30' E 024°57'0 0.0
2018-Jun-10 23:28N 59°30' E 024°57'0 0.0
2018-Jun-10 22:59N 59°30' E 024°57'0 0.0
2018-Jun-10 22:28N 59°30' E 024°57'0 0.0
2018-Jun-10 21:58N 59°30' E 024°57'0 0.0
2018-Jun-10 21:28N 59°30' E 024°57'0 0.0
2018-Jun-10 20:58N 59°30' E 024°57'0 0.0
2018-Jun-10 20:28N 59°30' E 024°57'0 0.0
2018-Jun-10 19:58N 59°30' E 024°57'0 0.0
2018-Jun-10 19:28N 59°30' E 024°57'0 0.0
2018-Jun-10 18:58N 59°30' E 024°57'0 0.0
2018-Jun-10 18:30N 59°30' E 024°57'0 0.0
2018-Jun-10 17:58N 59°30' E 024°57'0 0.0
2018-Jun-10 17:28N 59°30' E 024°57'0 0.0
2018-Jun-10 17:00N 59°30' E 024°57'0 0.0
2018-Jun-10 16:28N 59°30' E 024°57'0 0.0
2018-Jun-10 15:58N 59°30' E 024°57'0 0.0
2018-Jun-10 15:25N 59°30' E 024°57'0 0.0
2018-Jun-10 14:58N 59°30' E 024°57'0 0.0
2018-Jun-10 14:25N 59°30' E 024°57'0 0.0
2018-Jun-10 13:28N 59°30' E 024°57'0 0.0
2018-Jun-10 12:58N 59°30' E 024°57'0 0.0
2018-Jun-10 12:28N 59°30' E 024°57'0 0.0
2018-Jun-10 11:58N 59°30' E 024°57'0 0.0
2018-Jun-10 11:28N 59°30' E 024°57'0 0.0
2018-Jun-10 10:58N 59°30' E 024°57'0 0.0
2018-Jun-10 10:29N 59°30' E 024°57'0 0.0
2018-Jun-10 09:58N 59°30' E 024°57'0 0.0
2018-Jun-10 09:29N 59°30' E 024°57'0 0.0
2018-Jun-10 08:59N 59°30' E 024°57'0 0.0
2018-Jun-10 08:25N 59°30' E 024°57'0 0.0
2018-Jun-10 08:00N 59°30' E 024°57'0 0.0
2018-Jun-10 07:29N 59°30' E 024°57'0 0.0
2018-Jun-10 06:59N 59°30' E 024°57'0 0.0
2018-Jun-10 06:30N 59°30' E 024°57'0 0.0
2018-Jun-10 05:58N 59°30' E 024°57'0 0.0
2018-Jun-10 05:30N 59°30' E 024°57'0 0.9
2018-Jun-10 05:00N 59°30' E 024°57'5 9.1
2018-Jun-10 04:31N 59°34' E 024°53'3 4.9
2018-Jun-10 03:58N 59°35' E 024°49'0 0.0
2018-Jun-10 03:29N 59°35' E 024°49'0 0.1
2018-Jun-10 02:58N 59°36' E 024°49'0 0.0
2018-Jun-10 02:28N 59°36' E 024°49'0 0.0
2018-Jun-10 01:58N 59°36' E 024°49'0 0.0
2018-Jun-10 01:28N 59°36' E 024°49'0 0.1
2018-Jun-10 01:00N 59°35' E 024°49'2 3.9
2018-Jun-10 00:30N 59°37' E 024°47'510.4
2018-Jun-10 00:00N 59°41' E 024°41'5 9.3
2018-Jun-09 23:30N 59°46' E 024°41'510.2
2018-Jun-09 23:00N 59°49' E 024°49'811.9
2018-Jun-09 22:22N 59°51' E 025°04'512.3
2018-Jun-09 21:59N 59°52' E 025°13'612.2
2018-Jun-09 21:30N 59°53' E 025°25'612.2
2018-Jun-09 20:59N 59°53' E 025°37'612.3
2018-Jun-09 20:30N 59°55' E 025°49'612.2
2018-Jun-09 20:00N 59°56' E 026°01'612.2
2018-Jun-09 19:29N 59°58' E 026°13'612.0
2018-Jun-09 19:00N 59°60' E 026°24'611.9
2018-Jun-09 18:30N 60°01' E 026°35'612.0
2018-Jun-09 18:00N 60°01' E 026°47'711.9
2018-Jun-09 17:27N 59°60' E 026°60'511.3
2018-Jun-09 17:00N 60°01' E 027°09'611.8
2018-Jun-09 16:30N 60°04' E 027°19'713.0
2018-Jun-09 16:00N 60°08' E 027°31'1111.2
2018-Jun-09 15:00N 60°11' E 027°52'612.2
2018-Jun-09 14:30N 60°10' E 028°03'612.2
2018-Jun-09 14:00N 60°08' E 028°15'611.8
2018-Jun-09 13:30N 60°05' E 028°25'712.2
2018-Jun-09 12:58N 60°03' E 028°38'612.6
2018-Jun-09 12:30N 60°03' E 028°49'611.9
2018-Jun-09 12:00N 60°02' E 029°01'612.5
2018-Jun-09 11:30N 60°02' E 029°14'1510.4
2018-Jun-09 10:02N 59°59' E 029°44'010.6
2018-Jun-09 10:00N 59°59' E 029°44'4 8.8
2018-Jun-09 09:30N 59°57' E 029°52'5 8.9
2018-Jun-09 08:59N 59°55' E 030°01'4 8.5
2018-Jun-09 08:31N 59°54' E 030°08'2 2.6
2018-Jun-09 07:56N 59°53' E 030°11'0 0.0
2018-Jun-09 07:26N 59°53' E 030°11'0 0.0
2018-Jun-09 04:26N 59°53' E 030°11'0 0.0
2018-Jun-09 03:56N 59°53' E 030°11'0 0.0
2018-Jun-09 03:26N 59°53' E 030°11'0 0.0
2018-Jun-09 02:44N 59°53' E 030°11'0 0.0
2018-Jun-09 02:26N 59°53' E 030°11'0 0.0
2018-Jun-09 01:59N 59°53' E 030°11'0 0.0
2018-Jun-09 00:56N 59°53' E 030°11'0 0.0
2018-Jun-09 00:14N 59°53' E 030°11'0 0.0
2018-Jun-08 22:28N 59°53' E 030°11'0 0.0
2018-Jun-08 21:59N 59°53' E 030°11'0 0.0
2018-Jun-08 21:28N 59°53' E 030°11'0 0.0
2018-Jun-08 20:42N 59°53' E 030°11'0 0.0
2018-Jun-08 20:20N 59°53' E 030°11'0 0.0
2018-Jun-08 18:38N 59°53' E 030°11'0 0.0
2018-Jun-08 18:09N 59°53' E 030°11'0 0.0
2018-Jun-08 17:56N 59°53' E 030°11'0 0.0
2018-Jun-08 17:30N 59°53' E 030°11'0 0.0
2018-Jun-08 16:56N 59°53' E 030°11'0 0.0
2018-Jun-08 16:26N 59°53' E 030°11'0 0.0
2018-Jun-08 15:56N 59°53' E 030°11'0 0.0
2018-Jun-08 15:23N 59°53' E 030°11'0 0.0
2018-Jun-08 14:53N 59°53' E 030°11'0 0.0
2018-Jun-08 14:26N 59°53' E 030°11'0 0.0
2018-Jun-08 13:50N 59°53' E 030°11'  

Dump ship's entire track history